Time;durP1;ratioP1;P1;durP2;ratioP2;P2;SDS_P1;SDS_P2;PMS_P1;PMS_P2;Temp;Humidity;BMP_temperature;BMP_pressure;BME280_temperature;BME280_humidity;BME280_pressure;Samples;Min_cycle;Max_cycle;Signal;HPM_P1;HPM_P2
2021/06/02 00:02:15;;;;;;;;;23.67;23.00;;;;;25.01;40.42;100548.22;4999533;28;45313;-56
2021/06/02 00:04:46;;;;;;;;;23.33;22.33;;;;;25.01;40.53;100542.91;4999440;28;45461;-57
2021/06/02 00:07:15;;;;;;;;;23.50;23.50;;;;;25.01;40.51;100542.06;4999947;28;45374;-57
2021/06/02 00:09:40;;;;;;;;;25.25;22.50;;;;;25.01;40.65;100536.75;4999757;28;45579;-56
2021/06/02 00:12:09;;;;;;;;;23.00;21.75;;;;;25.01;40.59;100531.44;4999538;28;46263;-57
2021/06/02 00:14:35;;;;;;;;;22.67;19.67;;;;;25.00;40.09;100527.91;4999395;28;45258;-56
2021/06/02 00:17:01;;;;;;;;;25.00;22.00;;;;;25.00;40.50;100527.09;4999525;28;45536;-57
2021/06/02 00:19:27;;;;;;;;;21.00;19.33;;;;;25.00;40.90;100521.78;4980972;28;45302;-56
2021/06/02 00:21:53;;;;;;;;;24.00;24.00;;;;;25.01;40.96;100523.47;4979875;28;46059;-57
2021/06/02 00:24:19;;;;;;;;;21.33;21.33;;;;;25.00;40.49;100535.06;5052531;27;45272;-56
2021/06/02 00:26:45;;;;;;;;;22.75;22.75;;;;;25.00;40.55;100537.72;4979999;28;45345;-56
2021/06/02 00:29:12;;;;;;;;;23.00;20.67;;;;;24.99;40.77;100531.53;4979903;28;45441;-56
2021/06/02 00:31:39;;;;;;;;;21.67;21.33;;;;;24.99;40.65;100534.19;4979366;28;46163;-55
2021/06/02 00:34:05;;;;;;;;;23.67;22.33;;;;;24.99;40.76;100534.19;4993918;28;45395;-56
2021/06/02 00:36:31;;;;;;;;;22.00;22.00;;;;;24.99;40.83;100536.84;4979847;28;45351;-56
2021/06/02 00:38:57;;;;;;;;;22.50;22.50;;;;;24.99;40.75;100534.19;4979880;28;45468;-56
2021/06/02 00:41:23;;;;;;;;;26.00;23.33;;;;;24.98;40.86;100540.44;4979773;28;45339;-57
2021/06/02 00:43:48;;;;;;;;;23.33;19.67;;;;;24.98;40.56;100534.28;4979289;28;45160;-57
2021/06/02 00:46:15;;;;;;;;;20.67;18.33;;;;;24.98;40.44;100529.00;4979086;28;45255;-57
2021/06/02 00:48:44;;;;;;;;;19.67;19.67;;;;;24.99;40.55;100530.69;4979690;28;45540;-56
2021/06/02 00:51:11;;;;;;;;;22.67;20.67;;;;;24.98;40.53;100536.94;4979543;28;47058;-56
2021/06/02 00:53:36;;;;;;;;;19.67;19.67;;;;;24.99;40.50;100536.00;4979357;28;45313;-56
2021/06/02 00:56:07;;;;;;;;;19.00;19.00;;;;;24.99;40.65;100541.31;4979393;28;45307;-57
2021/06/02 00:58:46;;;;;;;;;21.00;21.00;;;;;24.97;40.95;100528.13;4978459;28;45398;-56
2021/06/02 01:01:13;;;;;;;;;23.00;22.00;;;;;24.98;40.48;100537.78;4978881;28;45526;-56
2021/06/02 01:03:39;;;;;;;;;23.00;20.00;;;;;24.96;40.71;100543.22;4978184;28;45327;-56
2021/06/02 01:06:06;;;;;;;;;24.67;23.00;;;;;24.96;40.45;100542.34;4979259;28;45361;-56
2021/06/02 01:08:32;;;;;;;;;21.67;20.00;;;;;24.96;40.45;100535.25;4979480;28;45490;-57
2021/06/02 01:10:58;;;;;;;;;20.33;20.33;;;;;24.96;40.82;100539.69;4977839;28;46260;-55
2021/06/02 01:13:23;;;;;;;;;19.00;19.00;;;;;24.95;40.76;100536.19;4979217;28;45283;-56
2021/06/02 01:15:51;;;;;;;;;19.67;19.67;;;;;24.95;40.84;100538.84;4977605;28;45310;-56
2021/06/02 01:18:18;;;;;;;;;23.33;20.00;;;;;24.95;40.95;100536.19;4983852;28;45633;-57
2021/06/02 01:20:47;;;;;;;;;17.67;15.33;;;;;24.95;40.82;100528.22;4993282;28;47106;-56
2021/06/02 01:23:14;;;;;;;;;18.33;17.00;;;;;24.96;40.61;100521.09;5040747;27;45423;-56
2021/06/02 01:25:41;;;;;;;;;21.00;20.33;;;;;24.95;40.64;100519.44;4997112;27;45335;-56
2021/06/02 01:28:06;;;;;;;;;21.00;19.00;;;;;24.95;40.45;100522.91;4979024;28;45465;-56
2021/06/02 01:30:33;;;;;;;;;15.33;15.33;;;;;24.95;40.87;100528.22;4978550;28;46141;-56
2021/06/02 01:33:33;;;;;;;;;20.33;18.33;;;;;24.95;40.73;100532.72;4978931;28;45317;-56
2021/06/02 01:36:04;;;;;;;;;19.33;19.33;;;;;24.94;40.74;100529.19;4987264;28;45405;-56
2021/06/02 01:38:52;;;;;;;;;17.67;16.00;;;;;24.94;40.46;100523.03;5013743;28;45188;-55
2021/06/02 01:41:23;;;;;;;;;19.33;17.33;;;;;24.94;41.01;100533.66;5013639;28;45363;-57
2021/06/02 01:44:17;;;;;;;;;21.00;21.00;;;;;24.94;40.84;100534.50;4998203;28;45369;-56
2021/06/02 01:47:06;;;;;;;;;18.67;16.67;;;;;24.93;40.98;100535.44;5000031;28;45305;-57
2021/06/02 01:50:01;;;;;;;;;19.00;16.67;;;;;24.94;40.56;100529.19;5016843;28;45526;-56
2021/06/02 01:52:48;;;;;;;;;16.00;16.00;;;;;24.93;40.82;100534.59;4971380;28;46127;-57
2021/06/02 01:55:28;;;;;;;;;20.67;18.00;;;;;24.92;40.78;100536.38;4981483;28;45384;-56
2021/06/02 01:58:30;;;;;;;;;17.67;17.67;;;;;24.93;40.96;100537.25;4964134;28;45401;-56
2021/06/02 02:01:33;;;;;;;;;21.33;19.00;;;;;24.92;40.75;100536.38;4981452;28;45334;-57
2021/06/02 02:04:23;;;;;;;;;19.67;19.67;;;;;24.91;40.95;100542.66;4981378;28;46374;-57
2021/06/02 02:07:20;;;;;;;;;18.67;16.67;;;;;24.91;40.80;100545.31;4990564;28;45278;-56
2021/06/02 02:10:01;;;;;;;;;16.67;16.67;;;;;24.91;40.83;100539.16;5016636;28;45325;-56
2021/06/02 02:12:33;;;;;;;;;20.00;17.00;;;;;24.91;40.55;100539.16;5001375;28;45267;-56
2021/06/02 02:14:59;;;;;;;;;17.33;16.00;;;;;24.91;41.00;100536.50;5016299;28;45377;-56
2021/06/02 02:17:42;;;;;;;;;18.67;17.67;;;;;24.90;40.73;100535.63;4998484;28;45331;-56
2021/06/02 02:20:29;;;;;;;;;18.00;17.33;;;;;24.91;41.19;100534.69;4991380;28;45488;-55
2021/06/02 02:23:14;;;;;;;;;15.33;14.67;;;;;24.90;40.91;100532.97;5046144;27;45347;-56
2021/06/02 02:26:04;;;;;;;;;18.33;15.67;;;;;24.91;40.84;100536.50;5001800;27;46919;-57
2021/06/02 02:28:48;;;;;;;;;17.67;16.67;;;;;24.90;41.23;100532.16;4981106;28;45359;-56
2021/06/02 02:31:32;;;;;;;;;21.33;18.67;;;;;24.89;41.07;100533.09;4990145;28;45145;-57
2021/06/02 02:34:22;;;;;;;;;18.00;15.67;;;;;24.90;40.96;100537.47;4999323;27;45281;-57
2021/06/02 02:36:51;;;;;;;;;16.00;15.33;;;;;24.89;40.95;100541.91;5000561;28;46111;-56
2021/06/02 02:39:23;;;;;;;;;20.00;17.00;;;;;24.90;40.66;100548.91;4996424;28;45665;-55
2021/06/02 02:42:04;;;;;;;;;19.00;15.00;;;;;24.89;40.85;100543.72;4997228;28;45335;-56
2021/06/02 02:45:00;;;;;;;;;17.00;17.00;;;;;24.89;41.28;100544.53;5016342;28;45433;-57
2021/06/02 02:47:40;;;;;;;;;17.00;15.67;;;;;24.88;40.96;100540.19;5000311;28;45362;-56
2021/06/02 02:50:13;;;;;;;;;16.67;15.33;;;;;24.88;40.85;100542.00;4999196;28;45424;-57
2021/06/02 02:53:03;;;;;;;;;16.67;14.00;;;;;24.89;41.22;100543.72;4996381;28;45495;-56
2021/06/02 02:55:34;;;;;;;;;15.33;15.00;;;;;24.89;40.79;100543.72;4981226;28;45416;-57
2021/06/02 02:58:17;;;;;;;;;16.67;16.67;;;;;24.89;41.03;100538.41;4992204;28;47048;-57
2021/06/02 03:01:20;;;;;;;;;14.67;13.67;;;;;24.89;40.73;100543.72;4990831;28;45298;-57
2021/06/02 03:04:00;;;;;;;;;14.00;13.67;;;;;24.89;40.89;100538.41;4990655;28;45318;-56
2021/06/02 03:06:29;;;;;;;;;16.33;14.67;;;;;24.89;40.92;100538.41;4981022;28;45564;-56
2021/06/02 03:09:22;;;;;;;;;14.00;14.00;;;;;24.88;40.91;100540.19;4980578;28;45201;-58
2021/06/02 03:12:00;;;;;;;;;18.00;17.00;;;;;24.88;41.01;100542.84;4990227;28;45322;-57
2021/06/02 03:14:39;;;;;;;;;15.67;14.00;;;;;24.88;41.04;100536.69;4995883;28;45486;-57
2021/06/02 03:17:34;;;;;;;;;18.00;15.00;;;;;24.88;41.08;100539.34;4992353;28;45490;-57
2021/06/02 03:20:03;;;;;;;;;15.67;14.00;;;;;24.88;40.85;100542.00;4993700;28;47308;-57
2021/06/02 03:23:07;;;;;;;;;16.00;14.33;;;;;24.88;40.92;100547.31;4991845;27;45213;-57
2021/06/02 03:25:41;;;;;;;;;16.00;15.00;;;;;24.87;40.79;100553.56;5019165;27;45528;-57
2021/06/02 03:28:23;;;;;;;;;14.00;14.00;;;;;24.87;40.83;100548.25;4979541;28;45494;-57
2021/06/02 03:31:01;;;;;;;;;15.67;15.00;;;;;24.88;41.08;100545.50;4978942;28;46147;-57
2021/06/02 03:34:02;;;;;;;;;15.33;14.33;;;;;24.87;40.91;100545.63;4980471;28;45395;-56
2021/06/02 03:36:52;;;;;;;;;14.67;14.67;;;;;24.86;41.35;100546.56;4997750;28;45271;-56
2021/06/02 03:39:28;;;;;;;;;17.33;17.33;;;;;24.87;41.07;100537.66;4999169;27;45251;-57
2021/06/02 03:42:02;;;;;;;;;14.33;14.33;;;;;24.86;41.40;100539.47;4983768;28;45354;-58
2021/06/02 03:45:04;;;;;;;;;17.67;16.00;;;;;24.86;41.19;100542.13;4989506;28;45383;-56
2021/06/02 03:48:03;;;;;;;;;13.33;13.33;;;;;24.85;41.00;100535.09;4991044;28;45352;-58
2021/06/02 03:50:52;;;;;;;;;16.00;14.33;;;;;24.86;40.82;100538.59;4987515;28;45330;-58
2021/06/02 03:53:34;;;;;;;;;14.67;14.67;;;;;24.86;41.04;100538.59;4999359;28;46235;-58
2021/06/02 03:56:18;;;;;;;;;15.67;14.33;;;;;24.85;40.99;100535.09;4995411;28;45411;-58
2021/06/02 03:58:59;;;;;;;;;13.67;13.67;;;;;24.85;40.55;100537.75;4979338;28;45278;-58
2021/06/02 04:01:30;;;;;;;;;15.00;14.33;;;;;24.85;40.92;100543.06;4995442;28;45463;-57
2021/06/02 04:04:14;;;;;;;;;13.67;12.33;;;;;24.85;41.40;100545.72;4999601;28;46406;-58
2021/06/02 04:06:48;;;;;;;;;14.00;14.00;;;;;24.85;41.53;100544.84;4999895;28;45315;-57
2021/06/02 04:09:23;;;;;;;;;13.33;13.33;;;;;24.84;41.26;100545.81;4998527;28;45247;-57
2021/06/02 04:12:02;;;;;;;;;13.67;13.67;;;;;24.84;40.88;100543.16;5015275;28;45505;-57
2021/06/02 04:14:34;;;;;;;;;15.00;13.67;;;;;24.84;41.42;100544.03;4999306;28;47288;-57
2021/06/02 04:17:00;;;;;;;;;13.67;13.00;;;;;24.84;40.71;100546.66;4998272;28;45287;-57
2021/06/02 04:19:28;;;;;;;;;14.00;14.00;;;;;24.84;40.89;100548.47;4980857;28;45478;-57
2021/06/02 04:21:56;;;;;;;;;15.00;14.00;;;;;24.84;40.92;100545.81;4978978;28;45420;-57
2021/06/02 04:24:23;;;;;;;;;13.33;13.00;;;;;24.84;41.10;100551.97;5051825;27;45491;-57
2021/06/02 04:26:48;;;;;;;;;13.00;12.67;;;;;24.84;41.21;100548.47;4978296;28;58594;-57
2021/06/02 04:29:15;;;;;;;;;14.00;13.67;;;;;24.83;40.65;100550.28;4997239;28;45368;-56
2021/06/02 04:31:58;;;;;;;;;16.00;12.33;;;;;24.84;41.22;100551.97;4987833;28;45251;-57
2021/06/02 04:34:25;;;;;;;;;16.33;15.00;;;;;24.84;41.02;100559.06;4979758;28;46406;-58
2021/06/02 04:36:53;;;;;;;;;13.33;11.00;;;;;24.83;41.53;100550.28;4979627;28;45235;-57
2021/06/02 04:39:19;;;;;;;;;15.00;13.33;;;;;24.83;41.34;100544.97;4979834;28;45418;-57
2021/06/02 04:41:46;;;;;;;;;14.00;14.00;;;;;24.84;41.27;100543.16;4979873;28;45252;-57
2021/06/02 04:44:13;;;;;;;;;13.33;13.33;;;;;24.84;40.94;100549.31;4978080;28;46494;-57
2021/06/02 04:46:40;;;;;;;;;16.00;14.00;;;;;24.84;41.10;100559.06;4978825;28;45500;-57
2021/06/02 04:49:05;;;;;;;;;14.67;14.00;;;;;24.84;41.11;100556.41;4979841;28;45335;-58
2021/06/02 04:51:59;;;;;;;;;14.00;13.00;;;;;24.84;41.13;100553.75;4979666;28;45322;-58
2021/06/02 04:55:00;;;;;;;;;13.00;12.67;;;;;24.84;41.25;100549.31;4979384;28;46916;-58
2021/06/02 04:57:56;;;;;;;;;14.33;14.00;;;;;24.83;41.16;100563.53;5003300;28;45421;-56
2021/06/02 05:00:36;;;;;;;;;16.00;13.67;;;;;24.84;41.30;100567.03;4986800;28;45468;-58
2021/06/02 05:03:16;;;;;;;;;12.67;12.67;;;;;24.84;41.25;100569.69;4981473;28;45424;-58
2021/06/02 05:06:02;;;;;;;;;13.00;11.33;;;;;24.84;41.15;100577.66;4998941;28;46373;-58
2021/06/02 05:09:02;;;;;;;;;14.00;13.00;;;;;24.83;40.83;100571.50;4997503;28;45872;-58
2021/06/02 05:11:56;;;;;;;;;9.00;9.00;;;;;24.83;41.53;100571.50;4981694;28;45511;-58
2021/06/02 05:14:59;;;;;;;;;17.00;15.00;;;;;24.83;41.11;100579.47;5014216;28;45282;-56
2021/06/02 05:17:33;;;;;;;;;13.67;13.67;;;;;24.83;41.08;100582.13;4996126;28;46021;-56
2021/06/02 05:20:40;;;;;;;;;12.00;12.00;;;;;24.84;41.38;100585.63;4980178;28;45329;-56
2021/06/02 05:23:21;;;;;;;;;13.33;13.33;;;;;24.83;41.00;100584.78;5028315;27;45243;-57
2021/06/02 05:26:08;;;;;;;;;11.67;11.33;;;;;24.84;41.30;100586.47;4996827;27;45408;-57
2021/06/02 05:29:07;;;;;;;;;12.33;11.33;;;;;24.83;41.04;100587.44;4981692;28;45979;-57
2021/06/02 05:31:54;;;;;;;;;12.00;12.00;;;;;24.84;41.42;100593.56;4980297;28;45303;-57
2021/06/02 05:34:57;;;;;;;;;12.33;12.33;;;;;24.84;41.38;100601.53;4988499;28;45301;-57
2021/06/02 05:37:59;;;;;;;;;12.00;12.00;;;;;24.85;41.29;100597.94;5001829;28;45319;-57
2021/06/02 05:40:58;;;;;;;;;12.00;12.00;;;;;24.84;41.10;100583.81;5001314;27;45231;-56
2021/06/02 05:43:45;;;;;;;;;12.00;12.00;;;;;24.84;41.48;100602.41;5000928;28;45342;-57
2021/06/02 05:46:34;;;;;;;;;12.00;9.67;;;;;24.85;41.22;100596.16;5001178;27;45409;-57
2021/06/02 05:49:29;;;;;;;;;11.33;11.33;;;;;24.86;41.15;100591.69;4997133;28;45216;-53
2021/06/02 05:52:13;;;;;;;;;13.00;12.00;;;;;24.86;41.07;100604.94;4998562;28;46075;-55
2021/06/02 05:54:45;;;;;;;;;13.00;13.00;;;;;24.86;41.27;100605.81;4999720;27;45363;-52
2021/06/02 05:57:38;;;;;;;;;17.00;12.67;;;;;24.86;41.51;100608.47;4994493;27;45423;-55
2021/06/02 06:00:16;;;;;;;;;12.00;11.00;;;;;24.86;41.60;100613.78;4986703;28;45588;-52
2021/06/02 06:03:06;;;;;;;;;12.67;12.67;;;;;24.87;41.04;100612.84;4990354;28;47682;-51
2021/06/02 06:05:54;;;;;;;;;13.67;13.00;;;;;24.88;41.37;100606.53;4997258;28;45246;-52
2021/06/02 06:08:57;;;;;;;;;12.00;12.00;;;;;24.88;41.72;100603.88;4987782;28;45467;-53
2021/06/02 06:12:00;;;;;;;;;12.00;12.00;;;;;24.90;41.74;100611.78;4979219;28;45594;-54
2021/06/02 06:15:02;;;;;;;;;13.67;13.67;;;;;24.91;41.79;100613.47;4979674;28;45552;-54
2021/06/02 06:17:58;;;;;;;;;13.33;13.33;;;;;24.91;41.65;100608.16;4991824;28;45845;-53
2021/06/02 06:20:45;;;;;;;;;12.33;12.33;;;;;24.92;41.61;100612.53;4993239;28;45209;-54
2021/06/02 06:23:18;;;;;;;;;16.00;15.67;;;;;24.92;41.73;100617.84;5029955;27;45307;-55
2021/06/02 06:25:51;;;;;;;;;10.33;10.33;;;;;24.92;41.47;100615.19;5008064;27;46156;-52
2021/06/02 06:28:29;;;;;;;;;16.33;13.33;;;;;24.94;41.89;100621.25;4991657;28;45356;-53
2021/06/02 06:30:56;;;;;;;;;17.67;14.00;;;;;24.93;41.90;100617.72;4999734;28;45169;-55
2021/06/02 06:33:22;;;;;;;;;12.00;12.00;;;;;24.94;42.04;100619.44;4996246;28;45254;-54
2021/06/02 06:35:48;;;;;;;;;14.00;14.00;;;;;24.95;41.99;100609.69;4998319;28;60195;-58
2021/06/02 06:38:39;;;;;;;;;16.33;15.33;;;;;24.95;42.04;100615.81;5000194;28;45563;-58
2021/06/02 06:41:06;;;;;;;;;14.00;12.33;;;;;24.95;42.35;100602.56;4998832;28;45775;-54
2021/06/02 06:43:33;;;;;;;;;14.00;14.00;;;;;24.97;42.27;100613.06;5006774;27;45567;-53
2021/06/02 06:46:00;;;;;;;;;15.33;14.33;;;;;24.96;42.58;100614.88;4995055;28;67656;-53
2021/06/02 06:48:27;;;;;;;;;11.00;11.00;;;;;24.98;42.37;100619.25;4990485;28;45409;-53
2021/06/02 06:50:54;;;;;;;;;14.00;14.00;;;;;24.98;42.64;100621.91;4987896;28;51358;-57
2021/06/02 06:53:21;;;;;;;;;14.00;13.00;;;;;24.99;42.50;100620.94;4995436;27;45607;-58
2021/06/02 06:55:49;;;;;;;;;19.00;14.67;;;;;24.98;42.29;100628.03;4986141;28;45462;-58
2021/06/02 06:58:15;;;;;;;;;18.33;14.67;;;;;24.99;42.70;100621.78;4988661;28;45466;-59
2021/06/02 07:00:40;;;;;;;;;19.33;17.67;;;;;24.99;42.42;100618.28;4986430;28;45927;-59
2021/06/02 07:03:07;;;;;;;;;18.67;17.00;;;;;25.00;42.74;100627.97;4986099;28;45511;-59
2021/06/02 07:05:33;;;;;;;;;23.00;21.67;;;;;25.00;42.45;100618.19;4987451;28;46970;-58
2021/06/02 07:07:58;;;;;;;;;21.33;21.00;;;;;24.99;42.70;100629.75;4983438;28;45415;-58
2021/06/02 07:10:25;;;;;;;;;17.33;14.67;;;;;25.01;42.78;100622.53;4990941;28;49649;-57
2021/06/02 07:12:51;;;;;;;;;20.33;20.33;;;;;25.01;43.05;100622.53;4986139;28;52229;-60
2021/06/02 07:15:17;;;;;;;;;26.33;24.33;;;;;25.02;42.80;100631.38;4984129;28;46096;-57
2021/06/02 07:17:49;;;;;;;;;24.67;22.33;;;;;25.01;42.59;100630.50;4986335;27;45641;-59
2021/06/02 07:20:18;;;;;;;;;21.33;20.00;;;;;25.02;42.89;100626.91;5000979;28;45469;-57
2021/06/02 07:22:46;;;;;;;;;21.67;17.00;;;;;25.02;42.39;100637.50;4987597;27;46138;-58
2021/06/02 07:25:14;;;;;;;;;19.67;19.00;;;;;25.02;42.78;100631.38;4983480;28;46150;-57
2021/06/02 07:27:40;;;;;;;;;20.33;20.33;;;;;25.03;42.82;100641.03;4984658;28;45550;-57
2021/06/02 07:30:06;;;;;;;;;22.33;19.33;;;;;25.03;42.90;100635.72;4983863;28;45808;-58
2021/06/02 07:32:32;;;;;;;;;30.33;28.00;;;;;25.03;42.45;100638.38;4991014;28;45539;-58
2021/06/02 07:34:57;;;;;;;;;25.33;23.33;;;;;25.03;42.50;100636.56;4983635;28;46182;-58
2021/06/02 07:37:23;;;;;;;;;25.67;24.00;;;;;25.03;42.76;100644.53;4986486;28;45478;-58
2021/06/02 07:39:48;;;;;;;;;21.67;20.00;;;;;25.03;42.56;100646.34;4984692;28;66622;-57
2021/06/02 07:42:14;;;;;;;;;18.67;18.00;;;;;25.04;42.60;100640.06;4986025;28;56019;-57
2021/06/02 07:44:40;;;;;;;;;26.00;23.00;;;;;25.05;42.55;100641.75;4982886;28;47234;-58
2021/06/02 07:47:05;;;;;;;;;23.67;23.33;;;;;25.04;42.88;100645.38;4980526;28;45504;-57
2021/06/02 07:49:30;;;;;;;;;23.33;19.33;;;;;25.04;42.93;100640.06;4985592;28;57269;-57
2021/06/02 07:52:00;;;;;;;;;18.00;17.33;;;;;25.05;42.68;100639.13;4985206;28;45503;-57
2021/06/02 07:54:25;;;;;;;;;17.33;16.33;;;;;25.06;42.76;100640.81;4982416;27;45461;-57
2021/06/02 07:56:51;;;;;;;;;20.00;20.00;;;;;25.06;42.97;100644.34;4983311;28;45492;-57
2021/06/02 07:59:16;;;;;;;;;19.00;17.00;;;;;25.06;42.65;100649.66;5020030;27;63199;-56
2021/06/02 08:01:41;;;;;;;;;18.33;16.33;;;;;25.07;42.91;100653.13;4984443;28;45460;-57
2021/06/02 08:04:07;;;;;;;;;15.33;15.33;;;;;25.07;42.67;100645.19;4985125;28;45926;-57
2021/06/02 08:06:32;;;;;;;;;18.67;18.67;;;;;25.07;43.04;100648.69;4983572;28;64436;-58
2021/06/02 08:08:58;;;;;;;;;15.00;12.67;;;;;25.07;42.72;100648.69;4985456;28;46770;-57
2021/06/02 08:11:23;;;;;;;;;23.33;19.33;;;;;25.07;43.16;100656.66;4986771;28;46261;-57
2021/06/02 08:13:49;;;;;;;;;24.33;22.00;;;;;25.08;43.36;100661.03;4982649;28;47093;-58
2021/06/02 08:16:14;;;;;;;;;24.00;21.33;;;;;25.09;42.87;100659.22;4984860;28;45516;-57
2021/06/02 08:18:40;;;;;;;;;20.67;17.33;;;;;25.09;42.86;100660.06;4986756;28;45478;-57
2021/06/02 08:21:05;;;;;;;;;16.00;16.00;;;;;25.09;43.02;100656.56;4985973;28;45463;-58
2021/06/02 08:23:31;;;;;;;;;17.33;17.33;;;;;25.10;43.10;100656.47;4984541;28;46032;-57
2021/06/02 08:25:56;;;;;;;;;18.67;18.67;;;;;25.11;43.15;100662.63;4966226;28;45536;-58
2021/06/02 08:28:22;;;;;;;;;20.00;19.67;;;;;25.11;43.06;100670.59;4984554;28;45371;-58
2021/06/02 08:30:47;;;;;;;;;23.33;19.00;;;;;25.10;43.04;100669.75;4984440;28;45440;-57
2021/06/02 08:33:13;;;;;;;;;24.67;21.33;;;;;25.11;43.00;100668.78;4985036;28;47069;-58
2021/06/02 08:35:38;;;;;;;;;24.33;22.67;;;;;25.12;43.41;100674.94;4984202;28;45428;-58
2021/06/02 08:38:04;;;;;;;;;26.00;23.33;;;;;25.13;43.33;100674.00;4986094;27;45524;-58
2021/06/02 08:40:29;;;;;;;;;25.00;22.33;;;;;25.12;42.96;100674.94;4985034;27;45639;-58
2021/06/02 08:42:55;;;;;;;;;24.67;21.67;;;;;25.14;43.12;100680.16;4983820;28;48010;-58
2021/06/02 08:45:21;;;;;;;;;21.33;21.33;;;;;25.14;42.86;100674.84;4983576;28;61838;-58
2021/06/02 08:47:48;;;;;;;;;19.00;19.00;;;;;25.14;43.50;100680.16;4983426;28;45537;-57
2021/06/02 08:50:15;;;;;;;;;13.33;12.33;;;;;25.14;42.96;100678.38;4984447;28;45453;-57
2021/06/02 08:52:43;;;;;;;;;20.00;17.33;;;;;25.15;43.17;100677.41;4986820;27;45488;-57
2021/06/02 08:55:11;;;;;;;;;24.33;23.67;;;;;25.15;43.19;100674.75;4982159;27;45418;-57
2021/06/02 08:57:43;;;;;;;;;29.50;28.25;;;;;25.16;43.08;100672.94;4984731;28;45439;-57
2021/06/02 09:00:11;;;;;;;;;24.67;24.67;;;;;25.15;42.68;100676.53;4983288;28;45824;-57
2021/06/02 09:02:41;;;;;;;;;20.67;20.33;;;;;25.16;42.99;100679.13;4982222;28;46951;-58
2021/06/02 09:05:08;;;;;;;;;33.00;29.00;;;;;25.17;43.26;100675.50;4989390;28;45736;-58
2021/06/02 09:07:37;;;;;;;;;39.00;34.00;;;;;25.17;43.10;100678.16;4999274;28;46786;-57
2021/06/02 09:10:04;;;;;;;;;37.00;32.00;;;;;25.18;43.00;100671.91;4990251;28;45565;-57
2021/06/02 09:12:34;;;;;;;;;34.50;32.00;;;;;25.18;43.14;100666.59;4985543;28;46267;-58
2021/06/02 09:15:19;;;;;;;;;38.50;33.00;;;;;25.18;43.26;100666.59;4998254;28;45554;-57
2021/06/02 09:18:03;;;;;;;;;45.00;35.75;;;;;25.20;43.04;100667.31;4983225;28;45402;-57
2021/06/02 09:20:44;;;;;;;;;34.75;30.25;;;;;25.20;42.89;100662.00;4983907;28;45886;-58
2021/06/02 09:23:32;;;;;;;;;36.25;30.00;;;;;25.19;42.89;100670.94;4983423;27;46403;-57
2021/06/02 09:26:22;;;;;;;;;31.00;25.75;;;;;25.21;42.77;100669.03;4983297;28;45545;-58
2021/06/02 09:29:01;;;;;;;;;26.50;24.25;;;;;25.21;43.25;100670.84;4983676;28;45626;-58
2021/06/02 09:31:45;;;;;;;;;22.50;22.25;;;;;25.21;43.37;100674.34;4983679;28;45695;-58
2021/06/02 09:34:19;;;;;;;;;30.33;25.33;;;;;25.21;43.04;100673.50;4984873;28;45333;-58
2021/06/02 09:36:47;;;;;;;;;29.00;28.00;;;;;25.22;43.06;100676.03;4983861;28;47050;-58
2021/06/02 09:39:18;;;;;;;;;27.00;24.33;;;;;25.22;43.18;100677.88;4984081;28;45501;-57
2021/06/02 09:41:47;;;;;;;;;23.67;23.67;;;;;25.22;43.09;100673.38;4982737;28;45490;-57
2021/06/02 09:44:13;;;;;;;;;28.00;23.75;;;;;25.23;43.37;100676.91;4982605;28;46471;-58
2021/06/02 09:47:02;;;;;;;;;40.00;33.25;;;;;25.24;43.04;100671.50;4983023;27;46867;-57
2021/06/02 09:49:29;;;;;;;;;33.25;29.50;;;;;25.25;43.12;100677.66;4982730;28;45891;-57
2021/06/02 09:51:55;;;;;;;;;32.75;26.25;;;;;25.25;42.78;100675.00;4983061;28;45488;-57
2021/06/02 09:54:24;;;;;;;;;31.75;27.75;;;;;25.26;43.16;100668.72;4979478;28;46105;-58
2021/06/02 09:56:50;;;;;;;;;42.75;33.00;;;;;25.26;43.16;100674.03;4982885;28;45395;-58
2021/06/02 09:59:17;;;;;;;;;32.75;30.25;;;;;25.26;43.12;100672.25;4991033;27;45499;-58
2021/06/02 10:01:57;;;;;;;;;34.00;28.25;;;;;25.27;43.51;100675.75;4983271;28;45652;-58
2021/06/02 10:04:39;;;;;;;;;30.75;29.25;;;;;25.25;43.29;100675.84;4983430;28;46213;-58
2021/06/02 10:07:17;;;;;;;;;23.50;23.50;;;;;25.26;43.17;100677.56;4984864;28;45496;-58
2021/06/02 10:09:43;;;;;;;;;24.25;21.25;;;;;25.26;43.21;100682.00;4987064;28;45482;-58
2021/06/02 10:12:10;;;;;;;;;22.75;22.50;;;;;25.26;43.50;100682.88;4984657;28;45417;-58
2021/06/02 10:14:40;;;;;;;;;18.33;18.00;;;;;25.28;43.01;100682.75;4986261;28;45844;-58
2021/06/02 10:17:29;;;;;;;;;19.00;18.75;;;;;25.30;43.18;100682.69;4991661;28;45889;-59
2021/06/02 10:19:54;;;;;;;;;17.00;17.00;;;;;25.30;43.20;100688.00;4986097;28;45524;-60
2021/06/02 10:22:28;;;;;;;;;31.50;25.50;;;;;25.31;43.42;100692.34;4986968;27;45682;-58
2021/06/02 10:24:56;;;;;;;;;33.25;30.00;;;;;25.30;42.96;100686.16;4987064;28;46843;-58
2021/06/02 10:27:22;;;;;;;;;31.50;30.25;;;;;25.31;43.33;100692.34;4984602;28;45512;-58
2021/06/02 10:29:49;;;;;;;;;32.00;29.75;;;;;25.31;42.99;100689.69;4985461;28;45451;-58
2021/06/02 10:32:16;;;;;;;;;25.33;23.33;;;;;25.30;43.36;100691.47;4985418;28;45445;-58
2021/06/02 10:34:42;;;;;;;;;26.33;24.33;;;;;25.32;42.94;100696.72;4986512;28;46769;-58
2021/06/02 10:37:10;;;;;;;;;68.50;49.75;;;;;25.33;42.91;100699.25;4984319;28;45531;-57
2021/06/02 10:39:36;;;;;;;;;24.50;23.25;;;;;25.34;43.49;100697.44;4962735;28;45327;-57
2021/06/02 10:42:05;;;;;;;;;20.67;20.33;;;;;25.34;43.07;100695.66;4980149;28;56754;-57
2021/06/02 10:44:35;;;;;;;;;23.67;23.33;;;;;25.36;43.53;100698.19;4991089;28;46330;-58
2021/06/02 10:47:01;;;;;;;;;22.67;21.33;;;;;25.38;44.36;100701.59;5014402;27;45385;-57
2021/06/02 10:49:28;;;;;;;;;25.00;25.00;;;;;25.39;44.29;100698.00;4997036;28;45559;-57
2021/06/02 10:51:55;;;;;;;;;25.00;22.33;;;;;25.41;44.61;100701.41;4998625;28;45448;-57
2021/06/02 10:54:35;;;;;;;;;23.33;21.67;;;;;25.42;44.92;100697.84;4981485;27;46647;-57
2021/06/02 10:57:00;;;;;;;;;25.50;25.50;;;;;25.44;44.90;100703.91;4981225;28;45197;-57
2021/06/02 10:59:32;;;;;;;;;26.00;24.00;;;;;25.46;45.12;100712.63;4992568;28;45550;-58
2021/06/02 11:02:17;;;;;;;;;25.00;25.00;;;;;25.48;45.14;100713.41;4987011;28;45495;-56
2021/06/02 11:04:55;;;;;;;;;25.00;23.50;;;;;25.50;45.04;100718.59;4988655;28;45389;-57
2021/06/02 11:07:25;;;;;;;;;23.67;22.00;;;;;25.51;44.92;100723.78;4986392;28;45387;-56
2021/06/02 11:10:12;;;;;;;;;23.33;21.67;;;;;25.52;44.62;100714.88;5000808;28;45530;-57
2021/06/02 11:12:49;;;;;;;;;20.00;20.00;;;;;25.53;45.02;100716.56;4981186;28;45334;-58
2021/06/02 11:15:21;;;;;;;;;24.33;24.00;;;;;25.54;44.56;100718.28;4987682;28;45912;-57
2021/06/02 11:18:09;;;;;;;;;22.67;20.67;;;;;25.56;44.83;100721.69;4985825;27;45961;-57
2021/06/02 11:20:58;;;;;;;;;23.33;20.00;;;;;25.55;44.77;100720.00;4993592;27;45561;-58
2021/06/02 11:23:44;;;;;;;;;23.33;22.67;;;;;25.58;44.79;100715.44;5028664;27;45346;-57
2021/06/02 11:26:23;;;;;;;;;74.75;54.00;;;;;25.59;44.85;100712.66;4994584;28;60569;-59
2021/06/02 11:28:48;;;;;;;;;76.00;56.25;;;;;25.58;44.69;100708.31;4985793;28;45520;-60
2021/06/02 11:31:19;;;;;;;;;28.67;26.33;;;;;25.60;45.16;100713.53;4990596;28;45490;-61
2021/06/02 11:33:45;;;;;;;;;19.33;19.33;;;;;25.60;45.30;100711.72;4986284;28;45404;-61
2021/06/02 11:36:12;;;;;;;;;21.33;19.33;;;;;25.61;45.52;100713.41;4984751;28;45299;-58
2021/06/02 11:38:39;;;;;;;;;21.67;21.00;;;;;25.65;45.78;100714.06;4995453;28;45523;-59
2021/06/02 11:41:05;;;;;;;;;448.60;332.60;;;;;25.66;45.43;100715.75;4991591;28;45286;-65
2021/06/02 11:43:31;;;;;;;;;197.25;163.00;;;;;25.67;46.12;100718.34;4996228;28;45514;-64
2021/06/02 11:45:59;;;;;;;;;174.33;134.33;;;;;25.69;45.83;100721.75;4982303;28;45600;-66